createdAt,value
2019-05-11T00:03:38.888Z,10.50
2019-05-11T00:08:43.425Z,10.50
2019-05-11T00:13:46.766Z,10.40
2019-05-11T00:18:48.303Z,10.40
2019-05-11T00:23:49.681Z,10.30
2019-05-11T00:28:52.096Z,10.30
2019-05-11T00:33:56.664Z,10.20
2019-05-11T00:39:01.176Z,10.10
2019-05-11T00:44:03.615Z,10.10
2019-05-11T00:49:10.734Z,10.00
2019-05-11T00:54:14.185Z,10.00
2019-05-11T00:59:21.810Z,10.00
2019-05-11T01:04:18.991Z,9.90
2019-05-11T01:09:23.539Z,9.90
2019-05-11T01:14:26.047Z,9.90
2019-05-11T01:19:30.788Z,9.90
2019-05-11T01:24:32.250Z,9.90
2019-05-11T01:29:35.564Z,9.80
2019-05-11T01:34:57.387Z,9.90
2019-05-11T01:40:06.660Z,9.90
2019-05-11T01:45:13.260Z,9.90
2019-05-11T01:50:20.483Z,9.90
2019-05-11T01:55:28.685Z,9.90
2019-05-11T02:00:33.347Z,9.90
2019-05-11T02:05:34.997Z,9.80
2019-05-11T02:10:42.120Z,9.80
2019-05-11T02:15:52.702Z,9.80
2019-05-11T02:20:57.237Z,9.90
2019-05-11T02:26:01.811Z,9.90
2019-05-11T02:31:12.164Z,9.90
2019-05-11T02:36:16.702Z,9.90
2019-05-11T02:41:48.977Z,9.90
2019-05-11T02:46:50.302Z,9.90
2019-05-11T02:51:51.903Z,9.90
2019-05-11T02:56:56.376Z,9.90
2019-05-11T03:01:59.703Z,9.90
2019-05-11T03:07:00.992Z,9.90
2019-05-11T03:12:05.400Z,9.90
2019-05-11T03:17:11.848Z,9.90
2019-05-11T03:22:19.093Z,9.90
2019-05-11T03:27:23.643Z,9.90
2019-05-11T03:32:28.159Z,9.90
2019-05-11T03:38:05.419Z,9.90
2019-05-11T03:43:08.899Z,9.90
2019-05-11T03:48:26.424Z,10.00
2019-05-11T03:53:32.437Z,9.90
2019-05-11T03:58:33.734Z,9.90
2019-05-11T04:03:37.171Z,9.90
2019-05-11T04:08:38.708Z,9.90
2019-05-11T04:13:42.285Z,9.80
2019-05-11T04:18:43.766Z,9.80
2019-05-11T04:24:22.260Z,9.80
2019-05-11T04:29:25.709Z,9.80
2019-05-11T04:34:33.085Z,9.70
2019-05-11T04:39:34.358Z,9.70
2019-05-11T04:45:08.080Z,9.60
2019-05-11T04:50:18.775Z,9.60
2019-05-11T04:55:22.233Z,9.60
2019-05-11T05:00:29.296Z,9.60
2019-05-11T05:05:37.107Z,9.60
2019-05-11T05:10:44.234Z,9.70
2019-05-11T05:15:47.767Z,9.70
2019-05-11T05:20:51.373Z,9.70
2019-05-11T05:25:59.913Z,9.80
2019-05-11T05:31:01.391Z,9.80
2019-05-11T05:36:08.830Z,9.90
2019-05-11T05:41:13.380Z,10.00
2019-05-11T05:46:17.768Z,10.10
2019-05-11T05:51:19.041Z,10.20
2019-05-11T05:56:23.639Z,10.20
2019-05-11T06:01:28.054Z,10.40
2019-05-11T06:06:32.622Z,10.50
2019-05-11T06:11:37.119Z,10.60
2019-05-11T06:16:38.576Z,10.70
2019-05-11T06:21:39.893Z,10.80
2019-05-11T06:26:53.539Z,11.00
2019-05-11T06:31:56.010Z,11.10
2019-05-11T06:36:59.518Z,11.40
2019-05-11T06:42:04.207Z,11.70
2019-05-11T06:47:09.133Z,12.00
2019-05-11T06:52:11.747Z,12.40
2019-05-11T06:57:17.361Z,13.00
2019-05-11T07:02:29.581Z,13.70
2019-05-11T07:07:46.582Z,14.10
2019-05-11T07:12:39.711Z,14.20
2019-05-11T07:17:41.149Z,14.20
2019-05-11T07:22:42.617Z,14.40
2019-05-11T07:27:53.919Z,14.50
2019-05-11T07:32:55.606Z,14.40
2019-05-11T07:37:58.136Z,14.30
2019-05-11T07:43:00.891Z,14.40
2019-05-11T07:48:09.308Z,14.50
2019-05-11T07:53:12.891Z,14.50
2019-05-11T07:58:20.175Z,14.40
2019-05-11T08:03:30.601Z,14.50
2019-05-11T08:08:31.871Z,14.70
2019-05-11T08:13:33.448Z,15.10
2019-05-11T08:18:34.884Z,15.30
2019-05-11T08:23:50.605Z,15.00
2019-05-11T08:28:57.692Z,15.30
2019-05-11T08:34:21.062Z,15.90
2019-05-11T08:39:28.667Z,16.70
2019-05-11T08:44:48.206Z,17.30
2019-05-11T08:49:58.946Z,17.40
2019-05-11T08:55:01.278Z,17.10
2019-05-11T09:00:13.120Z,16.30
2019-05-11T09:05:23.480Z,15.80
2019-05-11T09:10:28.336Z,15.80
2019-05-11T09:15:36.845Z,17.00
2019-05-11T09:20:41.088Z,18.50
2019-05-11T09:25:48.177Z,19.40
2019-05-11T09:30:57.751Z,19.10
2019-05-11T09:36:05.273Z,18.20
2019-05-11T09:41:08.973Z,18.60
2019-05-11T09:46:15.999Z,18.80
2019-05-11T09:51:20.617Z,18.10
2019-05-11T09:56:28.759Z,17.40
2019-05-11T10:01:50.444Z,18.20
2019-05-11T10:06:54.002Z,19.30
2019-05-11T10:12:37.855Z,19.60
2019-05-11T10:18:03.718Z,20.30
2019-05-11T10:23:08.416Z,20.60
2019-05-11T10:28:11.130Z,21.00
2019-05-11T10:33:13.494Z,21.20
2019-05-11T10:38:14.980Z,21.30
2019-05-11T10:43:19.610Z,21.40
2019-05-11T10:48:21.104Z,20.60
2019-05-11T10:53:27.902Z,20.80
2019-05-11T10:58:28.964Z,20.70
2019-05-11T11:03:32.461Z,19.40
2019-05-11T11:08:33.938Z,19.70
2019-05-11T11:13:38.768Z,20.70
2019-05-11T11:18:40.482Z,20.90
2019-05-11T11:23:47.854Z,20.70
2019-05-11T11:28:49.880Z,21.10
2019-05-11T11:33:58.521Z,21.50
2019-05-11T11:39:08.354Z,19.90
2019-05-11T11:44:12.109Z,19.90
2019-05-11T11:49:14.509Z,20.70
2019-05-11T11:54:21.570Z,19.80
2019-05-11T11:59:28.400Z,19.10
2019-05-11T12:04:30.290Z,20.10
2019-05-11T12:09:31.578Z,19.90
2019-05-11T12:14:38.640Z,19.10
2019-05-11T12:19:42.174Z,19.90
2019-05-11T12:24:43.666Z,19.40
2019-05-11T12:29:45.109Z,19.10
2019-05-11T12:34:52.205Z,20.50
2019-05-11T12:39:53.479Z,21.00
2019-05-11T12:45:00.891Z,19.50
2019-05-11T12:50:04.887Z,19.80
2019-05-11T12:55:08.682Z,21.10
2019-05-11T13:00:13.506Z,21.40
2019-05-11T13:05:17.851Z,20.30
2019-05-11T13:10:18.908Z,19.00
2019-05-11T13:15:23.560Z,18.00
2019-05-11T13:20:28.535Z,18.40
2019-05-11T13:25:33.569Z,20.10
2019-05-11T13:30:38.356Z,19.80
2019-05-11T13:35:43.569Z,19.10
2019-05-11T13:40:44.861Z,18.70
2019-05-11T13:45:49.292Z,18.00
2019-05-11T13:50:59.657Z,18.50
2019-05-11T13:56:02.085Z,18.50
2019-05-11T14:01:04.472Z,18.20
2019-05-11T14:06:08.998Z,18.50
2019-05-11T14:11:10.319Z,17.50
2019-05-11T14:16:13.877Z,17.50
2019-05-11T14:21:15.250Z,19.60
2019-05-11T14:26:19.117Z,20.30
2019-05-11T14:31:23.130Z,20.70
2019-05-11T14:36:25.535Z,22.50
2019-05-11T14:41:28.591Z,22.60
2019-05-11T14:46:38.233Z,20.90
2019-05-11T14:51:39.339Z,19.00
2019-05-11T14:56:41.877Z,17.60
2019-05-11T15:01:48.758Z,17.20
2019-05-11T15:06:49.720Z,17.30
2019-05-11T15:11:52.607Z,17.30
2019-05-11T15:16:54.221Z,16.80
2019-05-11T15:21:55.507Z,16.80
2019-05-11T15:27:10.348Z,18.30
2019-05-11T15:32:18.902Z,19.40
2019-05-11T15:37:30.191Z,18.20
2019-05-11T15:42:33.506Z,17.40
2019-05-11T15:47:37.680Z,17.10
2019-05-11T15:52:40.160Z,18.20
2019-05-11T15:57:42.529Z,18.80
2019-05-11T16:02:49.047Z,18.90
2019-05-11T16:07:50.413Z,17.80
2019-05-11T16:12:51.843Z,17.30
2019-05-11T16:17:57.657Z,17.00
2019-05-11T16:22:58.532Z,17.00
2019-05-11T16:28:10.474Z,16.40
2019-05-11T16:33:12.308Z,15.90
2019-05-11T16:38:54.039Z,15.70
2019-05-11T16:43:58.602Z,16.00
2019-05-11T16:49:06.449Z,16.00
2019-05-11T16:54:14.694Z,15.50
2019-05-11T16:59:28.432Z,14.90
2019-05-11T17:04:32.968Z,14.70
2019-05-11T17:09:34.544Z,14.60
2019-05-11T17:14:38.801Z,14.50
2019-05-11T17:19:49.271Z,14.40
2019-05-11T17:24:52.835Z,14.20
2019-05-11T17:29:59.241Z,14.10
2019-05-11T17:35:18.661Z,14.00
2019-05-11T17:40:23.299Z,13.90
2019-05-11T17:45:32.468Z,13.80
2019-05-11T17:50:33.978Z,13.60
2019-05-11T17:55:41.118Z,13.50
2019-05-11T18:00:47.900Z,13.30
2019-05-11T18:05:51.172Z,13.20
2019-05-11T18:10:58.605Z,13.10
2019-05-11T18:15:59.621Z,13.00
2019-05-11T18:21:08.517Z,12.90
2019-05-11T18:26:11.403Z,12.80
2019-05-11T18:31:18.200Z,12.70
2019-05-11T18:36:22.412Z,12.60
2019-05-11T18:41:24.950Z,12.50
2019-05-11T18:46:39.101Z,12.30
2019-05-11T18:51:48.351Z,12.10
2019-05-11T18:56:58.958Z,11.90
2019-05-11T19:02:03.717Z,11.70
2019-05-11T19:07:14.154Z,11.50
2019-05-11T19:12:08.685Z,11.30
2019-05-11T19:17:11.139Z,11.10
2019-05-11T19:22:13.730Z,10.90
2019-05-11T19:27:20.840Z,10.80
2019-05-11T19:32:22.195Z,10.60
2019-05-11T19:37:27.940Z,10.50
2019-05-11T19:42:29.496Z,10.30
2019-05-11T19:47:34.000Z,10.30
2019-05-11T19:52:35.478Z,10.10
2019-05-11T19:57:38.664Z,10.10
2019-05-11T20:02:40.278Z,10.00
2019-05-11T20:07:41.787Z,9.90
2019-05-11T20:12:44.155Z,9.80
2019-05-11T20:17:49.128Z,9.70
2019-05-11T20:22:58.468Z,9.60
2019-05-11T20:27:59.926Z,9.50
2019-05-11T20:33:04.505Z,9.40
2019-05-11T20:38:08.460Z,9.40
2019-05-11T20:43:09.359Z,9.30
2019-05-11T20:48:13.907Z,9.20
2019-05-11T20:53:18.044Z,9.20
2019-05-11T20:58:20.765Z,9.10
2019-05-11T21:03:24.183Z,9.10
2019-05-11T21:08:25.448Z,9.00
2019-05-11T21:13:28.210Z,8.90
2019-05-11T21:18:29.724Z,8.90
2019-05-11T21:23:33.343Z,8.80
2019-05-11T21:28:35.154Z,8.70
2019-05-11T21:33:38.993Z,8.60
2019-05-11T21:38:43.542Z,8.60
2019-05-11T21:43:52.071Z,8.50
2019-05-11T21:48:53.549Z,8.40
2019-05-11T21:53:57.864Z,8.30
2019-05-11T21:58:59.540Z,8.20
2019-05-11T22:04:14.310Z,8.10
2019-05-11T22:09:21.537Z,8.00
2019-05-11T22:14:29.676Z,8.00
2019-05-11T22:19:35.248Z,8.00
2019-05-11T22:24:36.521Z,7.90
2019-05-11T22:29:38.007Z,7.80
2019-05-11T22:34:41.503Z,7.80
2019-05-11T22:39:46.120Z,7.70
2019-05-11T22:44:48.358Z,7.70
2019-05-11T22:49:49.985Z,7.60
2019-05-11T22:54:51.405Z,7.60
2019-05-11T22:59:55.916Z,7.50
2019-05-11T23:05:22.753Z,7.50
2019-05-11T23:10:39.606Z,7.30
2019-05-11T23:15:53.152Z,7.30
2019-05-11T23:20:54.453Z,7.20
2019-05-11T23:25:57.974Z,7.10
2019-05-11T23:30:59.422Z,7.10
2019-05-11T23:36:11.019Z,7.10
2019-05-11T23:41:24.347Z,7.00
2019-05-11T23:46:22.665Z,7.00
2019-05-11T23:51:28.070Z,6.90
2019-05-11T23:56:31.166Z,6.70
